Time;durP1;ratioP1;P1;durP2;ratioP2;P2;SDS_P1;SDS_P2;PMS_P1;PMS_P2;Temp;Humidity;BMP_temperature;BMP_pressure;BME280_temperature;BME280_humidity;BME280_pressure;Samples;Min_cycle;Max_cycle;Signal;HPM_P1;HPM_P2
2022/10/22 00:00:54;;;;;;;14.57;9.45;;;20.10;92.30;;;;;;5095722;28;20107;-73
2022/10/22 00:03:20;;;;;;;10.85;8.48;;;20.10;92.40;;;;;;5095540;28;20093;-71
2022/10/22 00:05:47;;;;;;;11.02;8.70;;;20.20;92.50;;;;;;5095343;28;20020;-70
2022/10/22 00:08:14;;;;;;;12.50;9.55;;;20.20;92.60;;;;;;5095420;28;20060;-76
2022/10/22 00:10:40;;;;;;;13.13;9.88;;;20.20;92.90;;;;;;5095385;28;20063;-76
2022/10/22 00:13:06;;;;;;;13.13;9.38;;;20.20;92.90;;;;;;5095412;28;20077;-71
2022/10/22 00:15:32;;;;;;;12.07;9.23;;;20.20;93.00;;;;;;5095079;28;20031;-74
2022/10/22 00:17:58;;;;;;;11.55;9.38;;;20.20;93.00;;;;;;5095205;28;20028;-76
2022/10/22 00:20:24;;;;;;;12.55;9.10;;;20.20;93.20;;;;;;5094145;28;20028;-72
2022/10/22 00:22:49;;;;;;;12.35;9.10;;;20.20;93.30;;;;;;5095144;28;20089;-74
2022/10/22 00:25:15;;;;;;;11.43;9.30;;;20.20;93.40;;;;;;5095019;28;20411;-75
2022/10/22 00:27:41;;;;;;;16.05;8.68;;;20.20;93.50;;;;;;5076508;28;20036;-70
2022/10/22 00:30:07;;;;;;;9.63;8.48;;;20.20;93.60;;;;;;5075104;28;20123;-68
2022/10/22 00:32:33;;;;;;;11.68;8.90;;;20.20;93.80;;;;;;5074996;28;20028;-74
2022/10/22 00:34:58;;;;;;;12.23;8.52;;;20.20;93.80;;;;;;5074959;28;20485;-74
2022/10/22 00:37:24;;;;;;;10.32;8.60;;;20.30;93.90;;;;;;5074719;28;20029;-72
2022/10/22 00:39:50;;;;;;;10.88;8.70;;;20.30;94.00;;;;;;5074963;28;20055;-71
2022/10/22 00:42:20;;;;;;;11.20;8.30;;;20.30;94.10;;;;;;5074440;28;20048;-74
2022/10/22 00:45:10;;;;;;;10.52;8.25;;;20.30;94.20;;;;;;5074573;28;20028;-75
2022/10/22 00:47:51;;;;;;;12.60;8.40;;;20.30;94.20;;;;;;5074606;28;20383;-67
2022/10/22 00:50:39;;;;;;;9.45;8.02;;;20.30;94.10;;;;;;5074265;28;20493;-68
2022/10/22 00:53:11;;;;;;;10.30;8.50;;;20.40;94.20;;;;;;5072216;28;20412;-68
2022/10/22 00:55:38;;;;;;;12.30;8.32;;;20.40;94.30;;;;;;5073986;28;20032;-67
2022/10/22 00:58:04;;;;;;;10.32;7.53;;;20.40;94.30;;;;;;5074245;28;20017;-68
2022/10/22 01:00:30;;;;;;;11.55;8.30;;;20.40;94.40;;;;;;5073985;28;20028;-69
2022/10/22 01:02:56;;;;;;;9.95;7.60;;;20.40;94.30;;;;;;5074002;28;20059;-68
2022/10/22 01:05:25;;;;;;;11.15;8.02;;;20.40;94.30;;;;;;5072461;28;20036;-68
2022/10/22 01:07:52;;;;;;;10.77;7.90;;;20.40;94.40;;;;;;5074080;28;20347;-68
2022/10/22 01:10:21;;;;;;;10.27;7.45;;;20.40;94.40;;;;;;5073934;28;20470;-68
2022/10/22 01:12:58;;;;;;;10.30;7.55;;;20.40;94.40;;;;;;5073937;28;20031;-68
2022/10/22 01:15:50;;;;;;;10.30;7.55;;;20.40;94.40;;;;;;5073561;28;20024;-68
2022/10/22 01:18:34;;;;;;;10.30;7.32;;;20.40;94.70;;;;;;5074169;28;20030;-69
2022/10/22 01:21:21;;;;;;;10.80;8.05;;;20.40;94.30;;;;;;5073865;28;20048;-68
2022/10/22 01:23:50;;;;;;;9.80;7.40;;;20.40;94.40;;;;;;5073416;28;20150;-68
2022/10/22 01:26:27;;;;;;;9.95;7.50;;;20.40;94.40;;;;;;5073414;28;20020;-68
2022/10/22 01:29:29;;;;;;;11.50;7.05;;;20.40;94.40;;;;;;5073937;28;20024;-67
2022/10/22 01:31:59;;;;;;;9.95;7.65;;;20.40;94.20;;;;;;5059886;28;20090;-67
2022/10/22 01:34:28;;;;;;;11.32;7.03;;;20.40;94.20;;;;;;5073533;28;20541;-68
2022/10/22 01:36:54;;;;;;;9.02;7.35;;;20.40;94.20;;;;;;5073501;28;20079;-68
2022/10/22 01:39:22;;;;;;;9.20;6.85;;;20.50;94.20;;;;;;5073420;28;20025;-70
2022/10/22 01:41:48;;;;;;;11.15;7.15;;;20.40;94.20;;;;;;5073137;28;20040;-68
2022/10/22 01:44:27;;;;;;;8.52;6.85;;;20.50;94.20;;;;;;5072972;28;20028;-69
2022/10/22 01:47:15;;;;;;;8.30;7.13;;;20.50;94.10;;;;;;5073198;28;20020;-67
2022/10/22 01:50:08;;;;;;;11.70;7.60;;;20.40;94.00;;;;;;5073254;28;20035;-70
2022/10/22 01:52:40;;;;;;;12.95;8.15;;;20.40;94.20;;;;;;5072132;28;20065;-67
2022/10/22 01:55:17;;;;;;;11.15;8.77;;;20.30;93.90;;;;;;5073353;28;20033;-68
2022/10/22 01:57:54;;;;;;;13.05;10.00;;;20.20;93.80;;;;;;5073416;28;20021;-68
2022/10/22 02:00:20;;;;;;;12.52;8.73;;;20.10;93.30;;;;;;5073186;28;20020;-68
2022/10/22 02:02:59;;;;;;;14.23;9.77;;;20.00;93.20;;;;;;5073271;28;20029;-68
2022/10/22 02:05:47;;;;;;;12.80;9.52;;;19.90;92.90;;;;;;5073318;28;20029;-69
2022/10/22 02:08:27;;;;;;;12.70;9.40;;;19.90;92.90;;;;;;5073276;28;20029;-68
2022/10/22 02:10:53;;;;;;;15.50;9.93;;;19.80;92.90;;;;;;5074446;28;20025;-68
2022/10/22 02:13:36;;;;;;;9.98;8.20;;;19.80;92.70;;;;;;5074005;28;20082;-69
2022/10/22 02:16:05;;;;;;;12.43;9.00;;;19.80;92.80;;;;;;5072937;28;20020;-68
2022/10/22 02:18:33;;;;;;;12.02;9.50;;;19.70;92.60;;;;;;5072875;28;20078;-69
2022/10/22 02:21:00;;;;;;;12.02;9.55;;;19.70;92.50;;;;;;5072970;28;20025;-68
2022/10/22 02:23:27;;;;;;;12.02;9.32;;;19.70;92.50;;;;;;5072869;28;20024;-68
2022/10/22 02:26:05;;;;;;;13.32;9.32;;;19.70;92.30;;;;;;5072876;28;20091;-69
2022/10/22 02:28:54;;;;;;;11.88;8.88;;;19.70;92.10;;;;;;5071629;28;20020;-69
2022/10/22 02:31:25;;;;;;;12.88;9.63;;;19.70;92.30;;;;;;5073070;28;20027;-68
2022/10/22 02:33:55;;;;;;;11.02;8.40;;;19.70;91.90;;;;;;5073057;28;20063;-68
2022/10/22 02:36:22;;;;;;;11.70;8.98;;;19.60;91.90;;;;;;5072814;28;20048;-69
2022/10/22 02:38:50;;;;;;;9.93;8.45;;;19.60;91.80;;;;;;5072873;28;20033;-67
2022/10/22 02:41:17;;;;;;;15.48;8.95;;;19.60;91.80;;;;;;5072954;28;20461;-66
2022/10/22 02:43:47;;;;;;;14.85;8.52;;;19.60;91.80;;;;;;5072537;28;20029;-68
2022/10/22 02:46:13;;;;;;;12.50;9.30;;;19.60;91.80;;;;;;5072734;28;20017;-67
2022/10/22 02:48:38;;;;;;;13.63;8.93;;;19.50;91.80;;;;;;5072898;28;20515;-68
2022/10/22 02:51:04;;;;;;;13.15;8.63;;;19.50;91.90;;;;;;5072906;28;20013;-68
2022/10/22 02:53:30;;;;;;;11.50;8.50;;;19.50;91.80;;;;;;5072868;28;20462;-68
2022/10/22 02:55:56;;;;;;;11.73;9.35;;;19.50;91.80;;;;;;5073797;28;20025;-72
2022/10/22 02:58:22;;;;;;;11.77;8.63;;;19.50;91.90;;;;;;5076472;28;20112;-69
2022/10/22 03:00:48;;;;;;;9.70;8.30;;;19.50;91.90;;;;;;5076467;28;20039;-67
2022/10/22 03:03:14;;;;;;;10.85;8.23;;;19.50;91.90;;;;;;5076167;28;20082;-69
2022/10/22 03:05:39;;;;;;;10.23;7.95;;;19.50;91.90;;;;;;5076312;28;20024;-69
2022/10/22 03:08:05;;;;;;;12.85;8.18;;;19.50;91.90;;;;;;5076281;28;20028;-70
2022/10/22 03:10:31;;;;;;;9.63;8.30;;;19.50;92.00;;;;;;5076537;28;20028;-70
2022/10/22 03:12:58;;;;;;;11.70;8.23;;;19.50;92.00;;;;;;5074893;28;20025;-68
2022/10/22 03:15:23;;;;;;;11.50;7.95;;;19.50;92.10;;;;;;5076281;28;20105;-69
2022/10/22 03:17:52;;;;;;;11.90;8.30;;;19.50;92.10;;;;;;5076304;28;20048;-69
2022/10/22 03:20:17;;;;;;;13.57;8.15;;;19.50;92.10;;;;;;5074754;28;20036;-76
2022/10/22 03:22:44;;;;;;;14.25;8.35;;;19.50;92.10;;;;;;5075972;28;20036;-70
2022/10/22 03:25:18;;;;;;;12.23;7.22;;;19.50;92.30;;;;;;5076174;28;20036;-75
2022/10/22 03:27:45;;;;;;;12.65;7.43;;;19.40;92.30;;;;;;5076395;28;20024;-71
2022/10/22 03:30:11;;;;;;;10.48;7.35;;;19.40;92.20;;;;;;5074566;28;20028;-69
2022/10/22 03:32:37;;;;;;;13.05;8.02;;;19.40;92.40;;;;;;5075844;28;20029;-68
2022/10/22 03:35:04;;;;;;;10.15;7.50;;;19.40;92.50;;;;;;5075729;28;20016;-69
2022/10/22 03:37:31;;;;;;;11.55;7.78;;;19.40;92.60;;;;;;5075493;28;20111;-70
2022/10/22 03:39:59;;;;;;;11.32;7.72;;;19.40;92.60;;;;;;5076027;28;20020;-68
2022/10/22 03:42:25;;;;;;;13.25;8.20;;;19.40;92.60;;;;;;5074116;28;20140;-74
2022/10/22 03:44:51;;;;;;;11.50;7.95;;;19.40;92.60;;;;;;5075725;28;20028;-72
2022/10/22 03:47:17;;;;;;;11.95;8.05;;;19.40;92.60;;;;;;5075555;28;20024;-68
2022/10/22 03:49:43;;;;;;;10.38;7.40;;;19.40;92.50;;;;;;5075193;28;20028;-67
2022/10/22 03:52:12;;;;;;;15.63;7.85;;;19.50;92.60;;;;;;5074224;28;20025;-67
2022/10/22 03:54:38;;;;;;;11.02;8.70;;;19.50;92.40;;;;;;5075164;28;20048;-67
2022/10/22 03:57:05;;;;;;;13.80;8.48;;;19.50;92.40;;;;;;5075375;28;20048;-76
2022/10/22 03:59:40;;;;;;;13.18;8.30;;;19.40;92.30;;;;;;5073709;28;20070;-67
2022/10/22 04:02:06;;;;;;;12.32;9.10;;;19.40;92.30;;;;;;5075218;28;20054;-69
2022/10/22 04:04:33;;;;;;;11.75;7.97;;;19.40;92.30;;;;;;5075102;28;20085;-70
2022/10/22 04:06:58;;;;;;;13.65;7.15;;;19.40;92.30;;;;;;5074623;28;20020;-68
2022/10/22 04:09:24;;;;;;;11.63;7.70;;;19.40;92.20;;;;;;5074629;28;20025;-68
2022/10/22 04:11:50;;;;;;;11.73;7.70;;;19.40;92.10;;;;;;5074917;28;20025;-67
2022/10/22 04:14:16;;;;;;;11.32;7.80;;;19.40;92.00;;;;;;5075087;28;20029;-67
2022/10/22 04:16:42;;;;;;;11.10;7.50;;;19.40;92.00;;;;;;5074970;28;20017;-69
2022/10/22 04:19:08;;;;;;;10.85;7.82;;;19.40;91.90;;;;;;5074937;28;20111;-69
2022/10/22 04:21:34;;;;;;;11.82;8.07;;;19.30;91.70;;;;;;5074903;28;20101;-68
2022/10/22 04:24:00;;;;;;;11.38;7.38;;;19.30;91.70;;;;;;5074592;28;20085;-68
2022/10/22 04:26:26;;;;;;;12.02;7.53;;;19.30;91.70;;;;;;5074644;28;20369;-69
2022/10/22 04:28:53;;;;;;;12.93;8.15;;;19.30;91.80;;;;;;5074722;28;20028;-67
2022/10/22 04:31:21;;;;;;;11.75;7.63;;;19.30;91.80;;;;;;5075060;28;20103;-69
2022/10/22 04:33:50;;;;;;;12.43;7.90;;;19.30;91.80;;;;;;5074700;28;20489;-68
2022/10/22 04:36:17;;;;;;;11.10;7.50;;;19.30;91.90;;;;;;5074289;28;20024;-71
2022/10/22 04:38:44;;;;;;;11.00;7.15;;;19.30;91.90;;;;;;5074564;28;20024;-69
2022/10/22 04:41:21;;;;;;;8.15;6.57;;;19.30;91.80;;;;;;5074777;28;20394;-69
2022/10/22 04:43:47;;;;;;;11.68;7.55;;;19.30;92.00;;;;;;5074288;28;20036;-70
2022/10/22 04:46:15;;;;;;;12.95;7.88;;;19.30;91.70;;;;;;5074835;28;20124;-68
2022/10/22 04:48:42;;;;;;;9.85;7.13;;;19.40;91.70;;;;;;5075279;28;20381;-67
2022/10/22 04:51:11;;;;;;;12.30;7.15;;;19.30;91.70;;;;;;5074829;28;20023;-68
2022/10/22 04:53:36;;;;;;;11.07;7.10;;;19.30;91.80;;;;;;5074438;28;20469;-68
2022/10/22 04:56:23;;;;;;;9.35;7.18;;;19.30;91.80;;;;;;5074016;28;20074;-67
2022/10/22 04:58:55;;;;;;;13.15;7.85;;;19.30;91.80;;;;;;5073904;28;20027;-68
2022/10/22 05:01:22;;;;;;;13.15;8.13;;;19.30;91.70;;;;;;5074165;28;20040;-67
2022/10/22 05:03:49;;;;;;;15.57;8.05;;;19.30;91.80;;;;;;5074158;28;20051;-69
2022/10/22 05:06:15;;;;;;;12.25;7.50;;;19.30;91.80;;;;;;5074011;28;20077;-68
2022/10/22 05:08:42;;;;;;;16.33;8.05;;;19.30;91.90;;;;;;5073606;28;20091;-72
2022/10/22 05:11:19;;;;;;;13.38;7.45;;;19.30;91.80;;;;;;5073704;28;20598;-71
2022/10/22 05:13:45;;;;;;;12.90;7.85;;;19.30;91.80;;;;;;5073686;28;20016;-70
2022/10/22 05:16:12;;;;;;;11.75;7.60;;;19.30;91.90;;;;;;5073598;28;20032;-68
2022/10/22 05:18:41;;;;;;;14.10;7.72;;;19.30;91.90;;;;;;5073339;28;20434;-70
2022/10/22 05:21:09;;;;;;;12.25;7.20;;;19.30;91.90;;;;;;5073138;28;20025;-67
2022/10/22 05:23:35;;;;;;;12.20;8.07;;;19.30;91.90;;;;;;5073510;28;20389;-72
2022/10/22 05:26:06;;;;;;;12.43;7.78;;;19.30;91.90;;;;;;5071852;28;20021;-68
2022/10/22 05:28:32;;;;;;;10.48;7.75;;;19.30;91.90;;;;;;5072388;28;20081;-69
2022/10/22 05:31:00;;;;;;;15.27;7.82;;;19.30;92.00;;;;;;5073709;28;20046;-72
2022/10/22 05:33:26;;;;;;;11.85;7.18;;;19.30;92.00;;;;;;5073498;28;20021;-71
2022/10/22 05:35:52;;;;;;;11.18;7.90;;;19.30;91.90;;;;;;5073199;28;20100;-68
2022/10/22 05:38:18;;;;;;;11.40;7.93;;;19.30;92.10;;;;;;5073137;28;20461;-69
2022/10/22 05:40:44;;;;;;;11.60;7.90;;;19.30;92.10;;;;;;5071931;28;20033;-73
2022/10/22 05:43:11;;;;;;;10.25;7.70;;;19.30;92.10;;;;;;5073008;28;20097;-70
2022/10/22 05:45:40;;;;;;;13.27;7.28;;;19.30;92.00;;;;;;5073306;28;20100;-73
2022/10/22 05:48:08;;;;;;;13.32;8.23;;;19.30;92.10;;;;;;5072367;28;20418;-69
2022/10/22 05:50:37;;;;;;;17.00;8.85;;;19.40;92.20;;;;;;5073151;28;20059;-69
2022/10/22 05:53:04;;;;;;;16.83;8.07;;;19.40;92.10;;;;;;5071688;28;20481;-71
2022/10/22 05:55:35;;;;;;;18.15;9.55;;;19.50;92.20;;;;;;5073191;28;20031;-74
2022/10/22 05:58:04;;;;;;;15.25;8.55;;;19.60;92.30;;;;;;5073441;28;20111;-72
2022/10/22 06:00:30;;;;;;;15.95;8.15;;;19.70;92.50;;;;;;5073225;28;20052;-71
2022/10/22 06:02:56;;;;;;;14.02;8.70;;;19.70;92.20;;;;;;5073048;28;20060;-74
2022/10/22 06:05:21;;;;;;;16.30;8.20;;;19.70;92.10;;;;;;5072877;28;20674;-72
2022/10/22 06:07:47;;;;;;;15.02;7.90;;;19.80;92.10;;;;;;5073424;28;20042;-70
2022/10/22 06:10:16;;;;;;;11.38;8.32;;;19.90;92.10;;;;;;5073343;28;20457;-69
2022/10/22 06:12:42;;;;;;;12.43;8.90;;;19.90;92.00;;;;;;5073744;28;20020;-68
2022/10/22 06:15:10;;;;;;;14.55;8.90;;;19.90;91.90;;;;;;5073656;28;20078;-72
2022/10/22 06:17:36;;;;;;;11.20;7.72;;;20.00;91.90;;;;;;5073148;28;20017;-71
2022/10/22 06:20:02;;;;;;;15.68;8.10;;;20.00;91.80;;;;;;5073070;28;20074;-69
2022/10/22 06:22:28;;;;;;;18.50;8.73;;;20.10;91.90;;;;;;5071614;28;20469;-70
2022/10/22 06:24:53;;;;;;;13.30;8.63;;;20.20;91.90;;;;;;5072992;28;20029;-75
2022/10/22 06:27:19;;;;;;;10.68;7.95;;;20.20;91.80;;;;;;5073349;28;20078;-72
2022/10/22 06:29:45;;;;;;;12.52;7.70;;;20.30;91.80;;;;;;5073069;28;20042;-72
2022/10/22 06:32:10;;;;;;;13.50;7.82;;;20.40;92.00;;;;;;5076216;28;20020;-73
2022/10/22 06:34:36;;;;;;;11.93;8.00;;;20.50;91.90;;;;;;5076914;28;20020;-73
2022/10/22 06:37:02;;;;;;;11.93;7.55;;;20.60;92.00;;;;;;5075655;28;20583;-72
2022/10/22 06:39:28;;;;;;;13.38;8.07;;;20.70;92.10;;;;;;5077162;28;20035;-74
2022/10/22 06:41:53;;;;;;;16.98;8.18;;;20.80;92.20;;;;;;5076582;28;20049;-71
2022/10/22 06:44:19;;;;;;;13.00;7.88;;;21.00;92.30;;;;;;5077266;28;20104;-72
2022/10/22 06:46:50;;;;;;;16.85;6.82;;;21.10;92.10;;;;;;5076931;28;20413;-75
2022/10/22 06:49:16;;;;;;;13.15;6.88;;;21.30;92.20;;;;;;5076732;28;20036;-70
2022/10/22 06:51:43;;;;;;;12.77;6.43;;;21.50;92.30;;;;;;5076366;28;20025;-69
2022/10/22 06:54:08;;;;;;;12.10;6.95;;;21.60;92.30;;;;;;5077015;28;20033;-73
2022/10/22 06:56:34;;;;;;;13.90;7.20;;;21.70;92.20;;;;;;5076466;28;20024;-69
2022/10/22 06:59:00;;;;;;;14.60;6.97;;;21.80;92.20;;;;;;5074849;28;20513;-69
2022/10/22 07:01:28;;;;;;;13.02;7.28;;;21.90;92.00;;;;;;5071769;28;20024;-69
2022/10/22 07:03:54;;;;;;;18.00;7.80;;;22.00;92.00;;;;;;5076019;28;20438;-68
2022/10/22 07:06:21;;;;;;;14.30;6.78;;;22.10;91.90;;;;;;5076018;28;20021;-67
2022/10/22 07:08:47;;;;;;;11.27;6.50;;;22.20;91.80;;;;;;5074781;28;20020;-67
2022/10/22 07:11:18;;;;;;;12.60;6.93;;;22.30;91.70;;;;;;5067291;28;20040;-68
2022/10/22 07:13:45;;;;;;;15.15;7.35;;;22.40;92.00;;;;;;5056202;28;20051;-68
2022/10/22 07:16:12;;;;;;;11.48;6.72;;;22.40;91.50;;;;;;5054439;28;20021;-70
2022/10/22 07:18:39;;;;;;;15.43;7.38;;;22.50;91.50;;;;;;5056007;28;20013;-69
2022/10/22 07:21:06;;;;;;;11.35;6.72;;;22.50;91.50;;;;;;5056851;28;20029;-69
2022/10/22 07:23:32;;;;;;;11.13;6.82;;;22.60;91.50;;;;;;5055854;28;20029;-69
2022/10/22 07:26:01;;;;;;;11.00;6.78;;;22.60;91.40;;;;;;5069034;28;20021;-70
2022/10/22 07:28:27;;;;;;;17.25;7.63;;;22.60;91.50;;;;;;5075879;28;20036;-74
2022/10/22 07:30:53;;;;;;;10.68;6.43;;;22.70;91.50;;;;;;5076171;28;20046;-75
2022/10/22 07:33:19;;;;;;;11.70;6.63;;;22.70;91.50;;;;;;5076424;28;20024;-72
2022/10/22 07:35:45;;;;;;;12.35;6.93;;;22.70;91.60;;;;;;5076530;28;20039;-74
2022/10/22 07:38:11;;;;;;;16.30;6.82;;;22.70;91.60;;;;;;5075800;28;20025;-74
2022/10/22 07:40:37;;;;;;;12.90;7.60;;;22.80;91.70;;;;;;5076529;28;20028;-75
2022/10/22 07:43:03;;;;;;;14.75;7.38;;;22.80;91.70;;;;;;5074858;28;20048;-72
2022/10/22 07:45:29;;;;;;;15.93;8.02;;;22.80;91.60;;;;;;5075669;28;20025;-72
2022/10/22 07:47:55;;;;;;;13.45;7.47;;;22.90;91.70;;;;;;5075838;28;20029;-72
2022/10/22 07:50:21;;;;;;;12.02;8.05;;;22.90;91.50;;;;;;5076062;28;20024;-75
2022/10/22 07:52:47;;;;;;;15.70;7.47;;;23.00;91.50;;;;;;5075646;28;20081;-72
2022/10/22 07:55:13;;;;;;;11.25;6.75;;;23.00;91.40;;;;;;5075169;28;20154;-71
2022/10/22 07:57:41;;;;;;;15.05;7.40;;;23.10;91.30;;;;;;5075143;28;20025;-72
2022/10/22 08:00:08;;;;;;;14.18;8.30;;;23.20;91.20;;;;;;5075292;28;20154;-71
2022/10/22 08:02:34;;;;;;;11.48;6.57;;;23.20;91.10;;;;;;5075060;28;20066;-73
2022/10/22 08:05:00;;;;;;;15.05;7.10;;;23.30;91.00;;;;;;5078826;28;20095;-74
2022/10/22 08:07:27;;;;;;;11.63;6.57;;;23.40;91.00;;;;;;5081979;28;20469;-73
2022/10/22 08:09:53;;;;;;;12.18;6.80;;;23.40;91.00;;;;;;5080270;28;20350;-72
2022/10/22 08:12:19;;;;;;;13.00;6.47;;;23.50;90.60;;;;;;5083646;28;20119;-75
2022/10/22 08:14:44;;;;;;;12.75;7.30;;;23.50;90.40;;;;;;5091753;28;20024;-79
2022/10/22 08:17:10;;;;;;;13.00;6.30;;;23.60;90.40;;;;;;5077659;28;20046;-72
2022/10/22 08:19:38;;;;;;;14.00;7.75;;;23.60;90.10;;;;;;5057796;28;20078;-75
2022/10/22 08:22:04;;;;;;;15.55;7.10;;;23.70;90.00;;;;;;5054663;28;20175;-71
2022/10/22 08:24:30;;;;;;;18.73;6.82;;;23.70;89.80;;;;;;5054155;28;20045;-73
2022/10/22 08:26:56;;;;;;;11.63;6.15;;;23.80;89.70;;;;;;5054766;28;20430;-74
2022/10/22 08:29:22;;;;;;;15.63;8.52;;;23.80;89.50;;;;;;5064755;28;20021;-74
2022/10/22 08:31:49;;;;;;;13.65;6.95;;;23.70;89.10;;;;;;5094801;28;20099;-74
2022/10/22 08:34:15;;;;;;;10.32;5.85;;;23.70;89.00;;;;;;5093668;28;20032;-74
2022/10/22 08:36:41;;;;;;;16.13;6.25;;;23.70;88.80;;;;;;5086791;28;20094;-73
2022/10/22 08:39:07;;;;;;;11.57;6.13;;;23.70;88.60;;;;;;5075430;28;20334;-73
2022/10/22 08:41:40;;;;;;;13.35;6.45;;;23.80;88.70;;;;;;5062167;28;20463;-72
2022/10/22 08:44:44;;;;;;;10.48;6.45;;;23.80;88.30;;;;;;5053782;28;20036;-74
2022/10/22 08:47:40;;;;;;;12.90;6.25;;;23.90;89.00;;;;;;5054103;28;20025;-73
2022/10/22 08:50:11;;;;;;;12.68;6.13;;;23.90;88.00;;;;;;5054205;28;20028;-73
2022/10/22 08:52:41;;;;;;;12.90;5.57;;;23.90;87.90;;;;;;5053557;28;20071;-72
2022/10/22 08:55:12;;;;;;;12.55;5.75;;;23.90;87.60;;;;;;5055389;28;20029;-72
2022/10/22 08:58:17;;;;;;;14.50;6.53;;;23.90;87.50;;;;;;5048407;28;20419;-71
2022/10/22 09:01:06;;;;;;;11.50;6.15;;;24.00;88.20;;;;;;5063868;28;20021;-71
2022/10/22 09:03:52;;;;;;;11.02;6.32;;;24.00;88.10;;;;;;5073841;28;20036;-71
2022/10/22 09:06:24;;;;;;;15.40;6.43;;;24.10;87.60;;;;;;5072805;28;20095;-72
2022/10/22 09:08:50;;;;;;;12.77;6.20;;;24.10;86.50;;;;;;5063727;28;20066;-71
2022/10/22 09:11:25;;;;;;;11.32;5.95;;;24.20;86.40;;;;;;5067697;28;20020;-72
2022/10/22 09:13:53;;;;;;;11.90;5.97;;;24.30;87.00;;;;;;5092152;28;20027;-72
2022/10/22 09:16:56;;;;;;;15.93;6.68;;;24.30;86.10;;;;;;5072428;28;20024;-71
2022/10/22 09:19:32;;;;;;;13.10;5.82;;;24.40;86.60;;;;;;5086848;28;20350;-70
2022/10/22 09:22:26;;;;;;;11.48;6.10;;;24.40;86.20;;;;;;5093872;28;20439;-75
2022/10/22 09:25:01;;;;;;;13.50;5.72;;;24.40;86.00;;;;;;5093517;28;20113;-72
2022/10/22 09:27:32;;;;;;;15.20;5.90;;;24.40;85.10;;;;;;5095591;28;20031;-73
2022/10/22 09:30:00;;;;;;;10.85;5.50;;;24.40;84.80;;;;;;5096778;28;20088;-74
2022/10/22 09:32:27;;;;;;;14.05;5.68;;;24.40;84.80;;;;;;5094238;28;20035;-75
2022/10/22 09:34:58;;;;;;;10.20;5.60;;;24.40;84.50;;;;;;5095509;28;20454;-77
2022/10/22 09:37:29;;;;;;;14.40;5.75;;;24.40;84.20;;;;;;5093806;28;20031;-76
2022/10/22 09:39:57;;;;;;;12.20;5.18;;;24.50;83.70;;;;;;5096160;28;20495;-72
2022/10/22 09:42:24;;;;;;;20.40;6.70;;;24.50;83.30;;;;;;5095060;28;20039;-77
2022/10/22 09:44:55;;;;;;;12.48;5.93;;;24.60;82.90;;;;;;5095966;28;20028;-77
2022/10/22 09:47:27;;;;;;;16.88;9.50;;;24.70;82.80;;;;;;5094470;28;20137;-74
2022/10/22 09:50:23;;;;;;;17.98;6.03;;;24.70;82.60;;;;;;5095188;28;20107;-78
2022/10/22 09:53:23;;;;;;;14.93;5.80;;;24.80;82.70;;;;;;5098745;28;20036;-79
2022/10/22 09:55:55;;;;;;;10.63;5.57;;;24.90;82.10;;;;;;5102101;28;20029;-78
2022/10/22 09:58:21;;;;;;;11.27;5.38;;;24.90;81.20;;;;;;5100278;28;20170;-79
2022/10/22 10:00:54;;;;;;;10.40;4.78;;;24.90;81.40;;;;;;5097474;28;20032;-74
2022/10/22 10:03:27;;;;;;;11.93;5.73;;;24.90;81.80;;;;;;5096809;28;20131;-77
2022/10/22 10:05:54;;;;;;;;;;;25.00;81.70;;;;;;5094387;28;20024;-80
2022/10/22 10:08:21;;;;;;;11.68;6.13;;;25.00;80.10;;;;;;5095815;28;20332;-80
2022/10/22 10:11:07;;;;;;;14.05;5.32;;;25.10;80.80;;;;;;5094801;28;20030;-79
2022/10/22 10:13:59;;;;;;;15.30;5.32;;;25.20;80.30;;;;;;5094669;28;20028;-75
2022/10/22 10:16:43;;;;;;;11.02;5.05;;;25.20;80.00;;;;;;5094689;28;20477;-75
2022/10/22 10:19:31;;;;;;;14.23;5.13;;;25.20;79.90;;;;;;5094065;28;20393;-75
2022/10/22 10:22:29;;;;;;;12.40;5.25;;;25.20;79.50;;;;;;5093222;28;20028;-77
2022/10/22 10:24:55;;;;;;;16.30;6.20;;;25.30;78.50;;;;;;5093172;28;20055;-74
2022/10/22 10:27:40;;;;;;;13.75;5.57;;;25.30;78.70;;;;;;5093631;28;20047;-73
2022/10/22 10:30:15;;;;;;;18.58;5.75;;;25.40;78.30;;;;;;5094484;28;20024;-82
2022/10/22 10:33:09;;;;;;;12.32;5.47;;;25.40;78.60;;;;;;5092658;28;20028;-75
2022/10/22 10:35:46;;;;;;;12.52;4.63;;;25.50;78.20;;;;;;5093745;28;20110;-76
2022/10/22 10:38:39;;;;;;;11.40;5.05;;;25.50;77.90;;;;;;5093847;28;20032;-83
2022/10/22 10:41:35;;;;;;;12.65;5.28;;;25.60;77.20;;;;;;5093254;28;20028;-77
2022/10/22 10:44:34;;;;;;;14.40;5.10;;;25.60;77.20;;;;;;5094070;28;20040;-78
2022/10/22 10:47:37;;;;;;;13.45;4.75;;;25.70;76.70;;;;;;5093571;28;20055;-77
2022/10/22 10:50:50;;;;;;;14.23;5.03;;;25.80;75.80;;;;;;5091680;28;20032;-81
2022/10/22 10:53:41;;;;;;;13.48;5.50;;;25.90;75.70;;;;;;5031338;28;20087;-76
2022/10/22 10:56:21;;;;;;;13.15;5.05;;;26.00;75.00;;;;;;5100848;22;20184;-75
2022/10/22 10:58:47;;;;;;;16.60;5.53;;;25.90;74.80;;;;;;5052070;28;20033;-76
2022/10/22 11:01:12;;;;;;;12.05;5.18;;;26.00;75.30;;;;;;5034338;28;20096;-75
2022/10/22 11:04:20;;;;;;;12.45;5.47;;;26.00;74.50;;;;;;5052132;28;20072;-75
2022/10/22 11:06:48;;;;;;;14.85;5.05;;;26.10;74.00;;;;;;5034233;28;20036;-75
2022/10/22 11:09:47;;;;;;;14.65;5.13;;;26.10;74.40;;;;;;5034194;28;20036;-75
2022/10/22 11:12:24;;;;;;;13.75;5.55;;;26.10;73.70;;;;;;5046292;28;20036;-74
2022/10/22 11:15:27;;;;;;;20.73;5.28;;;26.10;73.90;;;;;;5052293;28;20115;-76
2022/10/22 11:17:58;;;;;;;16.30;5.82;;;26.00;73.40;;;;;;5053671;28;20029;-76
2022/10/22 11:20:36;;;;;;;10.63;5.13;;;26.00;73.90;;;;;;5055846;28;20052;-76
2022/10/22 11:23:13;;;;;;;13.10;4.85;;;26.00;73.80;;;;;;5055639;28;20120;-74
2022/10/22 11:25:45;;;;;;;12.60;5.57;;;26.00;74.20;;;;;;5056074;28;20094;-76
2022/10/22 11:28:24;;;;;;;12.38;5.07;;;26.10;74.40;;;;;;5056167;28;20024;-76
2022/10/22 11:30:57;;;;;;;15.68;4.75;;;26.20;73.10;;;;;;5056333;28;20083;-74
2022/10/22 11:33:28;;;;;;;8.27;4.70;;;26.30;74.00;;;;;;5056111;28;20028;-77
2022/10/22 11:36:03;;;;;;;11.23;4.65;;;26.30;73.70;;;;;;5055559;28;20067;-76
2022/10/22 11:38:30;;;;;;;12.50;5.47;;;26.30;73.10;;;;;;5056115;28;20025;-75
2022/10/22 11:41:05;;;;;;;16.55;5.03;;;26.20;73.30;;;;;;5056505;28;20504;-76
2022/10/22 11:43:34;;;;;;;18.63;5.85;;;26.20;73.20;;;;;;5055696;28;20036;-74
2022/10/22 11:46:20;;;;;;;14.15;4.65;;;26.10;73.10;;;;;;5055729;28;20017;-74
2022/10/22 11:49:15;;;;;;;12.43;4.68;;;26.20;73.10;;;;;;5005308;28;20037;-73
2022/10/22 11:51:42;;;;;;;10.18;4.50;;;26.30;72.10;;;;;;5055416;28;20096;-74
2022/10/22 11:54:30;;;;;;;14.90;5.05;;;26.30;72.50;;;;;;5055285;28;20036;-74
2022/10/22 11:57:14;;;;;;;13.70;4.30;;;26.40;71.40;;;;;;5027865;28;20045;-74
2022/10/22 11:59:59;;;;;;;10.65;4.35;;;26.30;71.40;;;;;;5055442;28;20033;-74
2022/10/22 12:02:27;;;;;;;17.27;5.22;;;26.20;70.90;;;;;;5055480;28;20037;-74
2022/10/22 12:04:55;;;;;;;14.10;5.47;;;26.20;72.30;;;;;;5055170;28;20359;-74
2022/10/22 12:07:58;;;;;;;8.95;4.70;;;26.10;72.10;;;;;;5051996;28;20242;-74
2022/10/22 12:10:48;;;;;;;18.73;5.90;;;26.00;71.10;;;;;;5036785;28;20109;-78
2022/10/22 12:13:30;;;;;;;21.90;5.35;;;26.00;71.50;;;;;;5050890;28;20423;-74
2022/10/22 12:16:02;;;;;;;27.85;6.55;;;26.10;71.10;;;;;;5054403;28;20101;-74
2022/10/22 12:18:43;;;;;;;16.52;5.18;;;26.00;73.00;;;;;;5054439;28;20024;-76
2022/10/22 12:21:13;;;;;;;18.77;7.07;;;25.90;73.40;;;;;;5036286;28;20060;-73
2022/10/22 12:23:39;;;;;;;13.95;5.57;;;25.90;73.40;;;;;;5054120;28;20060;-73
2022/10/22 12:26:05;;;;;;;15.95;5.85;;;25.90;73.30;;;;;;5053675;28;20116;-74
2022/10/22 12:28:39;;;;;;;13.40;6.05;;;25.90;72.90;;;;;;5053815;28;20056;-73
2022/10/22 12:31:05;;;;;;;15.98;5.75;;;25.90;73.10;;;;;;5053859;28;20044;-73
2022/10/22 12:33:31;;;;;;;17.80;6.63;;;26.10;72.40;;;;;;5054144;28;20510;-74
2022/10/22 12:36:02;;;;;;;16.08;5.50;;;26.20;71.80;;;;;;5054161;28;20051;-73
2022/10/22 12:38:28;;;;;;;18.75;5.85;;;26.30;71.60;;;;;;5054814;28;20032;-74
2022/10/22 12:40:56;;;;;;;19.83;5.60;;;26.30;71.20;;;;;;5054293;28;20017;-74
2022/10/22 12:43:29;;;;;;;12.50;5.07;;;26.30;71.40;;;;;;5036350;28;20041;-75
2022/10/22 12:45:57;;;;;;;14.88;5.32;;;26.40;70.00;;;;;;5053946;28;20029;-76
2022/10/22 12:48:29;;;;;;;14.75;5.15;;;26.30;71.00;;;;;;5054417;28;20049;-78
2022/10/22 12:50:58;;;;;;;14.07;5.63;;;26.30;70.00;;;;;;5054553;28;20466;-76
2022/10/22 12:53:34;;;;;;;13.90;4.55;;;26.30;70.80;;;;;;5051987;28;20224;-74
2022/10/22 12:56:03;;;;;;;13.88;5.15;;;26.20;69.80;;;;;;5041404;28;20037;-74
2022/10/22 12:58:37;;;;;;;17.00;6.53;;;26.10;70.90;;;;;;5043691;28;20094;-73
2022/10/22 13:01:03;;;;;;;15.85;5.32;;;26.20;71.10;;;;;;5043943;28;20034;-74